sensor_id;sensor_type;location;lat;lon;timestamp;pressure;altitude;pressure_sealevel;temperature;humidity
16978;BME280;8605;52.548;4.918;2024-03-25T00:02:11;100768.47;;;5.13;92.41
16978;BME280;8605;52.548;4.918;2024-03-25T00:04:39;100776.47;;;5.13;92.78
16978;BME280;8605;52.548;4.918;2024-03-25T00:07:05;100768.63;;;5.12;92.68
16978;BME280;8605;52.548;4.918;2024-03-25T00:09:32;100771.41;;;5.10;92.85
16978;BME280;8605;52.548;4.918;2024-03-25T00:11:58;100769.09;;;5.06;92.81
16978;BME280;8605;52.548;4.918;2024-03-25T00:14:25;100771.75;;;5.06;92.78
16978;BME280;8605;52.548;4.918;2024-03-25T00:16:51;100775.53;;;5.03;92.21
16978;BME280;8605;52.548;4.918;2024-03-25T00:19:18;100766.81;;;5.01;92.40
16978;BME280;8605;52.548;4.918;2024-03-25T00:21:45;100768.75;;;4.99;92.19
16978;BME280;8605;52.548;4.918;2024-03-25T00:24:12;100775.19;;;4.97;91.91
16978;BME280;8605;52.548;4.918;2024-03-25T00:26:37;100771.56;;;4.98;92.30
16978;BME280;8605;52.548;4.918;2024-03-25T00:29:04;100767.41;;;4.94;92.13
16978;BME280;8605;52.548;4.918;2024-03-25T00:31:30;100771.31;;;4.90;91.80
16978;BME280;8605;52.548;4.918;2024-03-25T00:33:57;100772.28;;;4.89;92.18
16978;BME280;8605;52.548;4.918;2024-03-25T00:36:22;100770.59;;;4.88;91.63
16978;BME280;8605;52.548;4.918;2024-03-25T00:38:51;100770.84;;;4.85;92.29
16978;BME280;8605;52.548;4.918;2024-03-25T00:41:16;100765.63;;;4.83;91.61
16978;BME280;8605;52.548;4.918;2024-03-25T00:43:43;100765.03;;;4.79;92.07
16978;BME280;8605;52.548;4.918;2024-03-25T00:46:09;100761.03;;;4.74;92.29
16978;BME280;8605;52.548;4.918;2024-03-25T00:48:36;100765.16;;;4.78;92.56
16978;BME280;8605;52.548;4.918;2024-03-25T00:51:04;100765.16;;;4.78;92.54
16978;BME280;8605;52.548;4.918;2024-03-25T00:53:31;100765.16;;;4.78;92.10
16978;BME280;8605;52.548;4.918;2024-03-25T00:55:58;100767.94;;;4.76;92.04
16978;BME280;8605;52.548;4.918;2024-03-25T00:58:25;100757.66;;;4.72;92.98
16978;BME280;8605;52.548;4.918;2024-03-25T01:00:51;100760.06;;;4.75;92.33
16978;BME280;8605;52.548;4.918;2024-03-25T01:03:18;100756.91;;;4.70;92.83
16978;BME280;8605;52.548;4.918;2024-03-25T01:05:44;100760.31;;;4.72;92.74
16978;BME280;8605;52.548;4.918;2024-03-25T01:08:10;100761.88;;;4.74;92.55
16978;BME280;8605;52.548;4.918;2024-03-25T01:10:39;100763.56;;;4.75;92.65
16978;BME280;8605;52.548;4.918;2024-03-25T01:13:07;100758.63;;;4.71;92.18
16978;BME280;8605;52.548;4.918;2024-03-25T01:15:33;100760.53;;;4.69;92.89
16978;BME280;8605;52.548;4.918;2024-03-25T01:18:00;100763.31;;;4.67;92.69
16978;BME280;8605;52.548;4.918;2024-03-25T01:20:25;100766.13;;;4.66;92.92
16978;BME280;8605;52.548;4.918;2024-03-25T01:22:52;100763.59;;;4.64;92.26
16978;BME280;8605;52.548;4.918;2024-03-25T01:25:18;100759.09;;;4.65;92.70
16978;BME280;8605;52.548;4.918;2024-03-25T01:27:45;100766.72;;;4.69;92.21
16978;BME280;8605;52.548;4.918;2024-03-25T01:30:13;100759.69;;;4.68;92.73
16978;BME280;8605;52.548;4.918;2024-03-25T01:32:40;100759.19;;;4.74;92.68
16978;BME280;8605;52.548;4.918;2024-03-25T01:35:07;100761.75;;;4.76;92.30
16978;BME280;8605;52.548;4.918;2024-03-25T01:37:33;100763.44;;;4.77;92.42
16978;BME280;8605;52.548;4.918;2024-03-25T01:39:59;100763.34;;;4.78;92.84
16978;BME280;8605;52.548;4.918;2024-03-25T01:42:26;100764.88;;;4.81;92.37
16978;BME280;8605;52.548;4.918;2024-03-25T01:44:52;100764.88;;;4.81;92.13
16978;BME280;8605;52.548;4.918;2024-03-25T01:47:21;100763.19;;;4.80;92.57
16978;BME280;8605;52.548;4.918;2024-03-25T01:49:47;100765.16;;;4.78;92.83
16978;BME280;8605;52.548;4.918;2024-03-25T01:52:15;100761.75;;;4.76;92.86
16978;BME280;8605;52.548;4.918;2024-03-25T01:54:41;100770.13;;;4.71;92.56
16978;BME280;8605;52.548;4.918;2024-03-25T01:57:09;100761.16;;;4.72;92.51
16978;BME280;8605;52.548;4.918;2024-03-25T01:59:35;100765.28;;;4.76;92.47
16978;BME280;8605;52.548;4.918;2024-03-25T02:02:02;100762.59;;;4.76;92.47
16978;BME280;8605;52.548;4.918;2024-03-25T02:04:30;100763.09;;;4.70;93.17
16978;BME280;8605;52.548;4.918;2024-03-25T02:06:57;100772.69;;;4.73;93.53
16978;BME280;8605;52.548;4.918;2024-03-25T02:09:24;100765.50;;;4.73;92.82
16978;BME280;8605;52.548;4.918;2024-03-25T02:11:51;100776.31;;;4.72;92.78
16978;BME280;8605;52.548;4.918;2024-03-25T02:14:18;100770.13;;;4.71;92.94
16978;BME280;8605;52.548;4.918;2024-03-25T02:16:45;100780.41;;;4.76;93.56
16978;BME280;8605;52.548;4.918;2024-03-25T02:19:13;100773.50;;;4.73;94.10
16978;BME280;8605;52.548;4.918;2024-03-25T02:21:43;100772.41;;;4.76;93.68
16978;BME280;8605;52.548;4.918;2024-03-25T02:24:09;100775.19;;;4.74;94.05
16978;BME280;8605;52.548;4.918;2024-03-25T02:26:38;100778.13;;;4.71;93.20
16978;BME280;8605;52.548;4.918;2024-03-25T02:29:04;100776.31;;;4.72;93.54
16978;BME280;8605;52.548;4.918;2024-03-25T02:31:31;100776.31;;;4.72;93.05
16978;BME280;8605;52.548;4.918;2024-03-25T02:33:57;100773.88;;;4.69;93.70
16978;BME280;8605;52.548;4.918;2024-03-25T02:36:24;100775.47;;;4.71;93.17
16978;BME280;8605;52.548;4.918;2024-03-25T02:38:50;100779.69;;;4.74;94.01
16978;BME280;8605;52.548;4.918;2024-03-25T02:41:17;100776.03;;;4.75;93.79
16978;BME280;8605;52.548;4.918;2024-03-25T02:43:44;100777.75;;;4.76;93.58
16978;BME280;8605;52.548;4.918;2024-03-25T02:46:11;100772.31;;;4.77;93.61
16978;BME280;8605;52.548;4.918;2024-03-25T02:48:37;100765.38;;;4.75;93.71
16978;BME280;8605;52.548;4.918;2024-03-25T02:51:04;100757.66;;;4.72;94.07
16978;BME280;8605;52.548;4.918;2024-03-25T02:53:30;100762.25;;;4.70;94.31
16978;BME280;8605;52.548;4.918;2024-03-25T02:55:57;100758.72;;;4.69;93.86
16978;BME280;8605;52.548;4.918;2024-03-25T02:58:22;100764.06;;;4.69;93.69
16978;BME280;8605;52.548;4.918;2024-03-25T03:00:50;100750.25;;;4.75;93.59
16978;BME280;8605;52.548;4.918;2024-03-25T03:03:16;100753.66;;;4.77;93.63
16978;BME280;8605;52.548;4.918;2024-03-25T03:05:43;100752.69;;;4.78;93.89
16978;BME280;8605;52.548;4.918;2024-03-25T03:08:09;100752.41;;;4.81;93.86
16978;BME280;8605;52.548;4.918;2024-03-25T03:10:35;100760.06;;;4.86;93.81
16978;BME280;8605;52.548;4.918;2024-03-25T03:13:01;100759.69;;;4.91;94.07
16978;BME280;8605;52.548;4.918;2024-03-25T03:15:28;100751.69;;;4.91;94.35
16978;BME280;8605;52.548;4.918;2024-03-25T03:17:55;100761.72;;;4.87;93.76
16978;BME280;8605;52.548;4.918;2024-03-25T03:20:22;100758.72;;;4.80;94.08
16978;BME280;8605;52.548;4.918;2024-03-25T03:22:48;100751.81;;;4.78;94.28
16978;BME280;8605;52.548;4.918;2024-03-25T03:25:15;100753.66;;;4.77;93.94
16978;BME280;8605;52.548;4.918;2024-03-25T03:27:42;100761.03;;;4.74;94.15
16978;BME280;8605;52.548;4.918;2024-03-25T03:30:10;100753.16;;;4.72;94.40
16978;BME280;8605;52.548;4.918;2024-03-25T03:32:36;100758.34;;;4.74;94.08
16978;BME280;8605;52.548;4.918;2024-03-25T03:35:04;100746.84;;;4.73;94.77
16978;BME280;8605;52.548;4.918;2024-03-25T03:37:30;100755.69;;;4.74;94.72
16978;BME280;8605;52.548;4.918;2024-03-25T03:39:57;100751.81;;;4.78;94.23
16978;BME280;8605;52.548;4.918;2024-03-25T03:42:23;100751.81;;;4.78;94.18
16978;BME280;8605;52.548;4.918;2024-03-25T03:44:49;100755.34;;;4.78;94.61
16978;BME280;8605;52.548;4.918;2024-03-25T03:47:16;100750.88;;;4.79;94.99
16978;BME280;8605;52.548;4.918;2024-03-25T03:49:42;100750.13;;;4.77;94.87
16978;BME280;8605;52.548;4.918;2024-03-25T03:52:09;100744.91;;;4.75;94.02
16978;BME280;8605;52.548;4.918;2024-03-25T03:54:36;100748.53;;;4.74;94.85
16978;BME280;8605;52.548;4.918;2024-03-25T03:57:02;100746.03;;;4.73;94.32
16978;BME280;8605;52.548;4.918;2024-03-25T03:59:29;100748.06;;;4.69;93.74
16978;BME280;8605;52.548;4.918;2024-03-25T04:01:55;100747.59;;;4.64;94.74
16978;BME280;8605;52.548;4.918;2024-03-25T04:04:22;100740.69;;;4.62;94.31
16978;BME280;8605;52.548;4.918;2024-03-25T04:06:48;100733.41;;;4.64;94.34
16978;BME280;8605;52.548;4.918;2024-03-25T04:09:16;100741.66;;;4.61;94.43
16978;BME280;8605;52.548;4.918;2024-03-25T04:11:43;100734.16;;;4.55;93.71
16978;BME280;8605;52.548;4.918;2024-03-25T04:14:11;100736.81;;;4.55;94.36
16978;BME280;8605;52.548;4.918;2024-03-25T04:16:36;100737.53;;;4.57;93.84
16978;BME280;8605;52.548;4.918;2024-03-25T04:19:03;100732.22;;;4.57;94.07
16978;BME280;8605;52.548;4.918;2024-03-25T04:21:29;100731.47;;;4.55;93.37
16978;BME280;8605;52.548;4.918;2024-03-25T04:23:56;100739.84;;;4.50;94.23
16978;BME280;8605;52.548;4.918;2024-03-25T04:26:23;100754.50;;;4.45;94.58
16978;BME280;8605;52.548;4.918;2024-03-25T04:28:50;100755.72;;;4.40;94.59
16978;BME280;8605;52.548;4.918;2024-03-25T04:31:15;100758.72;;;4.36;94.26
16978;BME280;8605;52.548;4.918;2024-03-25T04:33:42;100758.97;;;4.33;94.43
16978;BME280;8605;52.548;4.918;2024-03-25T04:36:08;100757.16;;;4.33;94.36
16978;BME280;8605;52.548;4.918;2024-03-25T04:38:35;100756.19;;;4.34;94.46
16978;BME280;8605;52.548;4.918;2024-03-25T04:41:01;100749.19;;;4.33;94.33
16978;BME280;8605;52.548;4.918;2024-03-25T04:43:28;100754.72;;;4.30;94.58
16978;BME280;8605;52.548;4.918;2024-03-25T04:45:54;100755.81;;;4.28;93.81
16978;BME280;8605;52.548;4.918;2024-03-25T04:48:20;100748.94;;;4.25;93.94
16978;BME280;8605;52.548;4.918;2024-03-25T04:50:45;100758.25;;;4.20;94.88
16978;BME280;8605;52.548;4.918;2024-03-25T04:53:11;100756.75;;;4.16;94.01
16978;BME280;8605;52.548;4.918;2024-03-25T04:55:37;100753.25;;;4.15;95.02
16978;BME280;8605;52.548;4.918;2024-03-25T04:58:03;100754.56;;;4.10;93.88
16978;BME280;8605;52.548;4.918;2024-03-25T05:00:31;100758.09;;;4.10;93.96
16978;BME280;8605;52.548;4.918;2024-03-25T05:02:57;100753.50;;;4.12;94.39
16978;BME280;8605;52.548;4.918;2024-03-25T05:05:23;100755.44;;;4.10;94.71
16978;BME280;8605;52.548;4.918;2024-03-25T05:07:49;100759.69;;;4.13;94.84
16978;BME280;8605;52.548;4.918;2024-03-25T05:10:15;100758.72;;;4.14;93.97
16978;BME280;8605;52.548;4.918;2024-03-25T05:12:41;100760.53;;;4.13;94.55
16978;BME280;8605;52.548;4.918;2024-03-25T05:15:07;100750.59;;;4.15;94.62
16978;BME280;8605;52.548;4.918;2024-03-25T05:17:34;100757.88;;;4.13;94.59
16978;BME280;8605;52.548;4.918;2024-03-25T05:20:00;100752.78;;;4.10;94.29
16978;BME280;8605;52.548;4.918;2024-03-25T05:22:26;100753.72;;;4.09;93.85
16978;BME280;8605;52.548;4.918;2024-03-25T05:24:52;100753.97;;;4.06;94.34
16978;BME280;8605;52.548;4.918;2024-03-25T05:27:18;100753.81;;;3.96;94.97
16978;BME280;8605;52.548;4.918;2024-03-25T05:29:43;100758.19;;;3.97;95.05
16978;BME280;8605;52.548;4.918;2024-03-25T05:32:09;100760.97;;;3.96;94.60
16978;BME280;8605;52.548;4.918;2024-03-25T05:34:37;100757.59;;;3.94;94.24
16978;BME280;8605;52.548;4.918;2024-03-25T05:37:03;100758.19;;;3.86;93.92
16978;BME280;8605;52.548;4.918;2024-03-25T05:39:29;100759.25;;;3.84;95.08
16978;BME280;8605;52.548;4.918;2024-03-25T05:41:54;100754.66;;;3.86;95.06
16978;BME280;8605;52.548;4.918;2024-03-25T05:44:20;100763.84;;;3.82;94.14
16978;BME280;8605;52.548;4.918;2024-03-25T05:46:46;100761.06;;;3.83;94.34
16978;BME280;8605;52.548;4.918;2024-03-25T05:49:12;100754.06;;;3.82;94.20
16978;BME280;8605;52.548;4.918;2024-03-25T05:51:39;100755.13;;;3.80;95.05
16978;BME280;8605;52.548;4.918;2024-03-25T05:54:05;100749.69;;;3.81;94.73
16978;BME280;8605;52.548;4.918;2024-03-25T05:56:31;100749.44;;;3.84;94.70
16978;BME280;8605;52.548;4.918;2024-03-25T05:58:57;100750.19;;;3.86;94.13
16978;BME280;8605;52.548;4.918;2024-03-25T06:01:23;100751.03;;;3.87;94.38
16978;BME280;8605;52.548;4.918;2024-03-25T06:03:49;100754.44;;;3.89;95.17
16978;BME280;8605;52.548;4.918;2024-03-25T06:06:15;100747.53;;;3.86;95.11
16978;BME280;8605;52.548;4.918;2024-03-25T06:08:42;100744.75;;;3.88;94.64
16978;BME280;8605;52.548;4.918;2024-03-25T06:11:08;100738.59;;;3.87;95.17
16978;BME280;8605;52.548;4.918;2024-03-25T06:13:34;100741.25;;;3.87;94.10
16978;BME280;8605;52.548;4.918;2024-03-25T06:16:00;100738.59;;;3.87;94.49
16978;BME280;8605;52.548;4.918;2024-03-25T06:18:26;100747.53;;;3.86;94.17
16978;BME280;8605;52.548;4.918;2024-03-25T06:20:52;100744.00;;;3.86;94.66
16978;BME280;8605;52.548;4.918;2024-03-25T06:23:23;100746.31;;;3.90;95.38
16978;BME280;8605;52.548;4.918;2024-03-25T06:25:51;100745.97;;;3.95;94.98
16978;BME280;8605;52.548;4.918;2024-03-25T06:28:17;100746.47;;;4.00;94.30
16978;BME280;8605;52.548;4.918;2024-03-25T06:30:45;100749.16;;;4.11;94.43
16978;BME280;8605;52.548;4.918;2024-03-25T06:33:29;100748.94;;;4.25;94.89
16978;BME280;8605;52.548;4.918;2024-03-25T06:36:13;100745.06;;;4.40;94.46
16978;BME280;8605;52.548;4.918;2024-03-25T06:38:39;100738.75;;;4.53;93.72
16978;BME280;8605;52.548;4.918;2024-03-25T06:41:06;100738.75;;;4.64;93.75
16978;BME280;8605;52.548;4.918;2024-03-25T06:43:32;100742.25;;;4.75;93.76
16978;BME280;8605;52.548;4.918;2024-03-25T06:45:58;100732.56;;;4.86;93.81
16978;BME280;8605;52.548;4.918;2024-03-25T06:48:24;100735.94;;;4.99;93.10
16978;BME280;8605;52.548;4.918;2024-03-25T06:50:53;100737.69;;;5.09;93.24
16978;BME280;8605;52.548;4.918;2024-03-25T06:53:19;100746.28;;;5.13;93.33
16978;BME280;8605;52.548;4.918;2024-03-25T06:55:55;100741.28;;;5.31;93.48
16978;BME280;8605;52.548;4.918;2024-03-25T06:58:24;100738.81;;;5.39;93.13
16978;BME280;8605;52.548;4.918;2024-03-25T07:00:50;100733.06;;;5.54;94.11
16978;BME280;8605;52.548;4.918;2024-03-25T07:03:16;100733.63;;;5.58;93.78
16978;BME280;8605;52.548;4.918;2024-03-25T07:05:45;100733.38;;;5.61;93.36
16978;BME280;8605;52.548;4.918;2024-03-25T07:08:11;100732.53;;;5.60;93.14
16978;BME280;8605;52.548;4.918;2024-03-25T07:10:37;100743.09;;;5.62;93.92
16978;BME280;8605;52.548;4.918;2024-03-25T07:13:03;100739.56;;;5.61;94.02
16978;BME280;8605;52.548;4.918;2024-03-25T07:15:31;100731.56;;;5.61;93.39
16978;BME280;8605;52.548;4.918;2024-03-25T07:17:57;100739.78;;;5.70;93.55
16978;BME280;8605;52.548;4.918;2024-03-25T07:20:23;100733.41;;;5.82;93.39
16978;BME280;8605;52.548;4.918;2024-03-25T07:22:49;100733.47;;;5.91;92.88
16978;BME280;8605;52.548;4.918;2024-03-25T07:25:15;100740.13;;;5.97;92.80
16978;BME280;8605;52.548;4.918;2024-03-25T07:27:41;100736.34;;;5.99;93.09
16978;BME280;8605;52.548;4.918;2024-03-25T07:30:07;100741.16;;;6.06;92.97
16978;BME280;8605;52.548;4.918;2024-03-25T07:32:35;100735.06;;;6.15;92.99
16978;BME280;8605;52.548;4.918;2024-03-25T07:35:01;100741.41;;;6.23;92.45
16978;BME280;8605;52.548;4.918;2024-03-25T07:37:27;100747.91;;;6.30;92.67
16978;BME280;8605;52.548;4.918;2024-03-25T07:39:53;100739.38;;;6.36;92.53
16978;BME280;8605;52.548;4.918;2024-03-25T07:42:18;100747.88;;;6.51;91.90
16978;BME280;8605;52.548;4.918;2024-03-25T07:44:44;100744.97;;;6.64;92.59
16978;BME280;8605;52.548;4.918;2024-03-25T07:47:10;100742.19;;;6.75;91.99
16978;BME280;8605;52.548;4.918;2024-03-25T07:49:38;100748.03;;;6.90;91.32
16978;BME280;8605;52.548;4.918;2024-03-25T07:52:04;100746.06;;;7.01;91.11
16978;BME280;8605;52.548;4.918;2024-03-25T07:54:30;100748.78;;;7.11;90.59
16978;BME280;8605;52.548;4.918;2024-03-25T07:56:56;100758.88;;;6.98;90.18
16978;BME280;8605;52.548;4.918;2024-03-25T07:59:22;100745.94;;;6.93;89.56
16978;BME280;8605;52.548;4.918;2024-03-25T08:01:48;100757.22;;;7.16;90.02
16978;BME280;8605;52.548;4.918;2024-03-25T08:04:14;100759.66;;;7.29;89.35
16978;BME280;8605;52.548;4.918;2024-03-25T08:06:41;100758.81;;;7.28;88.54
16978;BME280;8605;52.548;4.918;2024-03-25T08:09:07;100757.69;;;7.40;89.11
16978;BME280;8605;52.548;4.918;2024-03-25T08:11:35;100756.44;;;7.44;88.34
16978;BME280;8605;52.548;4.918;2024-03-25T08:14:01;100761.50;;;7.47;87.27
16978;BME280;8605;52.548;4.918;2024-03-25T08:16:27;100759.69;;;7.57;87.36
16978;BME280;8605;52.548;4.918;2024-03-25T08:18:52;100766.84;;;7.67;86.20
16978;BME280;8605;52.548;4.918;2024-03-25T08:21:18;100767.41;;;7.80;86.07
16978;BME280;8605;52.548;4.918;2024-03-25T08:23:46;100765.88;;;7.87;86.87
16978;BME280;8605;52.548;4.918;2024-03-25T08:26:12;100765.44;;;7.82;86.23
16978;BME280;8605;52.548;4.918;2024-03-25T08:28:38;100767.56;;;7.69;85.68
16978;BME280;8605;52.548;4.918;2024-03-25T08:31:04;100770.50;;;7.85;85.63
16978;BME280;8605;52.548;4.918;2024-03-25T08:33:30;100770.09;;;7.99;85.53
16978;BME280;8605;52.548;4.918;2024-03-25T08:35:56;100768.81;;;8.03;84.45
16978;BME280;8605;52.548;4.918;2024-03-25T08:38:22;100766.97;;;8.13;84.25
16978;BME280;8605;52.548;4.918;2024-03-25T08:40:50;100768.06;;;8.20;84.33
16978;BME280;8605;52.548;4.918;2024-03-25T08:43:16;100756.22;;;8.32;84.03
16978;BME280;8605;52.548;4.918;2024-03-25T08:45:42;100762.84;;;8.28;83.72
16978;BME280;8605;52.548;4.918;2024-03-25T08:48:08;100758.00;;;8.51;83.38
16978;BME280;8605;52.548;4.918;2024-03-25T08:50:34;100762.09;;;8.55;81.68
16978;BME280;8605;52.548;4.918;2024-03-25T08:53:00;100759.22;;;8.66;82.46
16978;BME280;8605;52.548;4.918;2024-03-25T08:55:27;100760.47;;;8.62;81.29
16978;BME280;8605;52.548;4.918;2024-03-25T08:57:54;100760.94;;;8.58;82.15
16978;BME280;8605;52.548;4.918;2024-03-25T09:00:20;100750.44;;;8.74;82.18
16978;BME280;8605;52.548;4.918;2024-03-25T09:02:46;100757.78;;;8.72;80.65
16978;BME280;8605;52.548;4.918;2024-03-25T09:05:12;100757.47;;;8.48;80.93
16978;BME280;8605;52.548;4.918;2024-03-25T09:07:38;100750.31;;;8.66;82.61
16978;BME280;8605;52.548;4.918;2024-03-25T09:10:04;100751.28;;;8.74;80.59
16978;BME280;8605;52.548;4.918;2024-03-25T09:12:48;100753.28;;;8.35;82.25
16978;BME280;8605;52.548;4.918;2024-03-25T09:15:16;100752.81;;;8.40;83.14
16978;BME280;8605;52.548;4.918;2024-03-25T09:17:42;100751.41;;;8.26;83.00
16978;BME280;8605;52.548;4.918;2024-03-25T09:20:08;100745.31;;;8.43;82.51
16978;BME280;8605;52.548;4.918;2024-03-25T09:22:35;100732.84;;;8.62;82.31
16978;BME280;8605;52.548;4.918;2024-03-25T09:25:01;100736.22;;;8.64;82.92
16978;BME280;8605;52.548;4.918;2024-03-25T09:27:27;100730.25;;;8.70;82.63
16978;BME280;8605;52.548;4.918;2024-03-25T09:29:53;100731.09;;;8.98;81.31
16978;BME280;8605;52.548;4.918;2024-03-25T09:32:20;100731.44;;;9.12;81.33
16978;BME280;8605;52.548;4.918;2024-03-25T09:34:46;100726.13;;;9.03;80.00
16978;BME280;8605;52.548;4.918;2024-03-25T09:37:12;100734.16;;;9.03;79.39
16978;BME280;8605;52.548;4.918;2024-03-25T09:39:38;100732.03;;;9.06;78.63
16978;BME280;8605;52.548;4.918;2024-03-25T09:42:06;100732.19;;;9.22;79.57
16978;BME280;8605;52.548;4.918;2024-03-25T09:44:34;100725.09;;;9.31;79.34
16978;BME280;8605;52.548;4.918;2024-03-25T09:47:00;100720.84;;;9.29;78.13
16978;BME280;8605;52.548;4.918;2024-03-25T09:49:28;100721.31;;;9.24;77.64
16978;BME280;8605;52.548;4.918;2024-03-25T09:51:55;100720.56;;;9.32;78.40
16978;BME280;8605;52.548;4.918;2024-03-25T09:54:21;100711.75;;;9.39;76.28
16978;BME280;8605;52.548;4.918;2024-03-25T09:56:48;100716.56;;;9.36;77.43
16978;BME280;8605;52.548;4.918;2024-03-25T09:59:15;100713.03;;;9.35;77.77
16978;BME280;8605;52.548;4.918;2024-03-25T10:01:41;100712.41;;;9.23;75.19
16978;BME280;8605;52.548;4.918;2024-03-25T10:04:08;100708.97;;;9.31;76.54
16978;BME280;8605;52.548;4.918;2024-03-25T10:06:35;100701.00;;;9.39;76.67
16978;BME280;8605;52.548;4.918;2024-03-25T10:09:04;100698.59;;;9.54;75.77
16978;BME280;8605;52.548;4.918;2024-03-25T10:11:31;100699.66;;;9.61;76.82
16978;BME280;8605;52.548;4.918;2024-03-25T10:13:57;100703.22;;;9.44;76.98
16978;BME280;8605;52.548;4.918;2024-03-25T10:16:23;100701.91;;;9.48;75.49
16978;BME280;8605;52.548;4.918;2024-03-25T10:18:49;100699.91;;;9.50;75.35
16978;BME280;8605;52.548;4.918;2024-03-25T10:21:19;100696.75;;;9.72;76.98
16978;BME280;8605;52.548;4.918;2024-03-25T10:23:47;100686.94;;;9.63;75.31
16978;BME280;8605;52.548;4.918;2024-03-25T10:26:25;100690.28;;;9.39;73.22
16978;BME280;8605;52.548;4.918;2024-03-25T10:28:59;100689.25;;;9.40;75.34
16978;BME280;8605;52.548;4.918;2024-03-25T10:31:25;100690.41;;;9.55;76.28
16978;BME280;8605;52.548;4.918;2024-03-25T10:33:51;100684.38;;;9.79;77.36
16978;BME280;8605;52.548;4.918;2024-03-25T10:36:19;100681.47;;;9.98;76.56
16978;BME280;8605;52.548;4.918;2024-03-25T10:38:47;100682.00;;;9.76;74.51
16978;BME280;8605;52.548;4.918;2024-03-25T10:41:17;100678.53;;;9.66;74.17
16978;BME280;8605;52.548;4.918;2024-03-25T10:43:45;100675.41;;;9.53;74.03
16978;BME280;8605;52.548;4.918;2024-03-25T10:46:13;100677.19;;;9.62;73.38
16978;BME280;8605;52.548;4.918;2024-03-25T10:48:46;100679.31;;;9.76;75.08
16978;BME280;8605;52.548;4.918;2024-03-25T10:51:13;100677.56;;;9.93;75.84
16978;BME280;8605;52.548;4.918;2024-03-25T10:53:40;100670.72;;;9.98;75.13
16978;BME280;8605;52.548;4.918;2024-03-25T10:56:08;100672.97;;;10.11;76.53
16978;BME280;8605;52.548;4.918;2024-03-25T10:58:36;100674.25;;;10.17;74.30
16978;BME280;8605;52.548;4.918;2024-03-25T11:01:02;100660.19;;;9.79;72.57
16978;BME280;8605;52.548;4.918;2024-03-25T11:03:28;100650.31;;;9.62;72.32
16978;BME280;8605;52.548;4.918;2024-03-25T11:05:55;100662.84;;;9.97;73.21
16978;BME280;8605;52.548;4.918;2024-03-25T11:08:30;100657.69;;;10.12;73.44
16978;BME280;8605;52.548;4.918;2024-03-25T11:10:56;100662.28;;;9.93;72.69
16978;BME280;8605;52.548;4.918;2024-03-25T11:13:27;100655.56;;;9.89;72.61
16978;BME280;8605;52.548;4.918;2024-03-25T11:15:53;100650.13;;;9.81;73.49
16978;BME280;8605;52.548;4.918;2024-03-25T11:18:22;100655.84;;;10.12;74.75
16978;BME280;8605;52.548;4.918;2024-03-25T11:20:59;100647.31;;;10.43;72.80
16978;BME280;8605;52.548;4.918;2024-03-25T11:23:25;100640.50;;;10.64;72.67
16978;BME280;8605;52.548;4.918;2024-03-25T11:25:55;100629.19;;;10.53;70.79
16978;BME280;8605;52.548;4.918;2024-03-25T11:28:28;100623.84;;;10.61;72.47
16978;BME280;8605;52.548;4.918;2024-03-25T11:30:55;100615.31;;;10.81;71.37
16978;BME280;8605;52.548;4.918;2024-03-25T11:33:22;100613.47;;;10.90;71.83
16978;BME280;8605;52.548;4.918;2024-03-25T11:35:48;100622.78;;;11.12;71.45
16978;BME280;8605;52.548;4.918;2024-03-25T11:38:14;100619.09;;;11.21;71.94
16978;BME280;8605;52.548;4.918;2024-03-25T11:40:43;100615.63;;;10.78;71.51
16978;BME280;8605;52.548;4.918;2024-03-25T11:43:09;100616.75;;;10.52;72.59
16978;BME280;8605;52.548;4.918;2024-03-25T11:45:37;100604.94;;;10.45;71.88
16978;BME280;8605;52.548;4.918;2024-03-25T11:48:03;100605.88;;;10.77;72.88
16978;BME280;8605;52.548;4.918;2024-03-25T11:50:30;100601.88;;;10.81;67.21
16978;BME280;8605;52.548;4.918;2024-03-25T11:52:55;100594.31;;;11.17;70.51
16978;BME280;8605;52.548;4.918;2024-03-25T11:55:21;100598.28;;;10.65;65.74
16978;BME280;8605;52.548;4.918;2024-03-25T11:57:54;100589.25;;;10.90;70.28
16978;BME280;8605;52.548;4.918;2024-03-25T12:00:20;100590.78;;;11.09;71.00
16978;BME280;8605;52.548;4.918;2024-03-25T12:02:48;100593.25;;;10.78;68.58
16978;BME280;8605;52.548;4.918;2024-03-25T12:05:14;100578.81;;;10.79;68.87
16978;BME280;8605;52.548;4.918;2024-03-25T12:07:40;100570.94;;;11.26;70.02
16978;BME280;8605;52.548;4.918;2024-03-25T12:10:06;100579.16;;;11.16;67.35
16978;BME280;8605;52.548;4.918;2024-03-25T12:12:51;100567.22;;;10.87;69.87
16978;BME280;8605;52.548;4.918;2024-03-25T12:15:17;100571.44;;;11.13;68.61
16978;BME280;8605;52.548;4.918;2024-03-25T12:17:43;100568.91;;;11.04;69.54
16978;BME280;8605;52.548;4.918;2024-03-25T12:20:11;100571.56;;;10.96;68.22
16978;BME280;8605;52.548;4.918;2024-03-25T12:22:37;100566.56;;;11.01;68.76
16978;BME280;8605;52.548;4.918;2024-03-25T12:25:04;100559.13;;;10.87;68.92
16978;BME280;8605;52.548;4.918;2024-03-25T12:27:31;100556.28;;;10.96;66.67
16978;BME280;8605;52.548;4.918;2024-03-25T12:29:59;100543.00;;;11.19;66.23
16978;BME280;8605;52.548;4.918;2024-03-25T12:32:32;100557.28;;;11.44;66.05
16978;BME280;8605;52.548;4.918;2024-03-25T12:35:01;100550.06;;;11.20;63.08
16978;BME280;8605;52.548;4.918;2024-03-25T12:37:30;100548.72;;;11.32;66.23
16978;BME280;8605;52.548;4.918;2024-03-25T12:39:56;100556.59;;;11.58;68.06
16978;BME280;8605;52.548;4.918;2024-03-25T12:42:22;100559.28;;;11.58;67.16
16978;BME280;8605;52.548;4.918;2024-03-25T12:44:48;100560.63;;;11.54;65.41
16978;BME280;8605;52.548;4.918;2024-03-25T12:47:14;100556.06;;;11.71;67.16
16978;BME280;8605;52.548;4.918;2024-03-25T12:49:40;100549.88;;;11.30;66.84
16978;BME280;8605;52.548;4.918;2024-03-25T12:52:07;100544.84;;;11.27;67.02
16978;BME280;8605;52.548;4.918;2024-03-25T12:54:34;100536.41;;;11.38;66.79
16978;BME280;8605;52.548;4.918;2024-03-25T12:57:00;100528.81;;;11.41;67.08
16978;BME280;8605;52.548;4.918;2024-03-25T12:59:26;100524.97;;;11.03;69.34
16978;BME280;8605;52.548;4.918;2024-03-25T13:01:52;100533.88;;;11.36;68.34
16978;BME280;8605;52.548;4.918;2024-03-25T13:04:18;100524.41;;;11.56;68.74
16978;BME280;8605;52.548;4.918;2024-03-25T13:06:43;100533.22;;;11.34;66.87
16978;BME280;8605;52.548;4.918;2024-03-25T13:09:09;100535.06;;;10.85;66.77